Time;durP1;ratioP1;P1;durP2;ratioP2;P2;SDS_P1;SDS_P2;PMS_P1;PMS_P2;Temp;Humidity;BMP_temperature;BMP_pressure;BME280_temperature;BME280_humidity;BME280_pressure;Samples;Min_cycle;Max_cycle;Signal;HPM_P1;HPM_P2
2024/02/10 00:02:23;;;;;;;29.50;13.37;;;2.40;99.90;;;;;;4998491;28;20211;-77
2024/02/10 00:05:15;;;;;;;31.53;14.00;;;2.50;99.90;;;;;;5013557;28;20712;-76
2024/02/10 00:08:03;;;;;;;26.13;13.33;;;2.50;99.90;;;;;;4997888;28;20220;-77
2024/02/10 00:10:51;;;;;;;30.17;13.07;;;2.50;99.90;;;;;;5011864;28;20193;-77
2024/02/10 00:13:41;;;;;;;28.97;13.33;;;2.50;99.90;;;;;;5012343;28;20192;-77
2024/02/10 00:16:30;;;;;;;29.00;14.30;;;2.50;99.90;;;;;;4998550;28;20211;-76
2024/02/10 00:19:17;;;;;;;30.80;14.03;;;2.50;99.90;;;;;;5012414;28;20205;-77
2024/02/10 00:22:07;;;;;;;27.20;13.17;;;2.40;99.90;;;;;;5011246;28;20202;-77
2024/02/10 00:24:58;;;;;;;25.73;12.93;;;2.40;99.90;;;;;;5011675;28;20199;-77
2024/02/10 00:27:46;;;;;;;28.20;13.37;;;2.50;99.90;;;;;;4998133;28;20227;-77
2024/02/10 00:30:34;;;;;;;28.07;13.37;;;2.60;99.90;;;;;;5011002;28;20314;-77
2024/02/10 00:33:21;;;;;;;30.23;14.13;;;2.60;99.90;;;;;;5012400;28;20199;-77
2024/02/10 00:36:09;;;;;;;28.97;14.07;;;2.60;99.90;;;;;;5011598;28;20649;-76
2024/02/10 00:38:56;;;;;;;35.23;14.70;;;2.70;99.90;;;;;;5011929;28;20200;-77
2024/02/10 00:41:45;;;;;;;29.90;14.40;;;2.60;99.90;;;;;;4998034;28;20224;-77
2024/02/10 00:44:34;;;;;;;30.90;15.17;;;2.60;99.90;;;;;;4997435;28;20648;-76
2024/02/10 00:47:22;;;;;;;32.03;14.37;;;2.60;99.90;;;;;;5010594;28;20307;-77
2024/02/10 00:50:09;;;;;;;33.83;15.30;;;2.60;99.90;;;;;;5011456;28;20276;-76
2024/02/10 00:52:56;;;;;;;36.17;15.97;;;2.70;99.90;;;;;;4996781;28;20526;-77
2024/02/10 00:55:44;;;;;;;32.23;15.17;;;2.60;99.90;;;;;;5012646;28;20279;-77
2024/02/10 00:58:31;;;;;;;31.73;14.87;;;2.60;99.90;;;;;;5011704;28;20205;-76
2024/02/10 01:01:22;;;;;;;32.97;15.30;;;2.60;99.90;;;;;;5010699;28;20689;-77
2024/02/10 01:04:12;;;;;;;31.27;14.77;;;2.70;99.90;;;;;;5010911;28;20289;-76
2024/02/10 01:07:01;;;;;;;33.57;15.67;;;2.70;99.90;;;;;;5010771;28;20376;-76
2024/02/10 01:09:49;;;;;;;31.53;14.47;;;2.60;99.90;;;;;;5010402;28;20655;-77
2024/02/10 01:12:37;;;;;;;35.47;15.77;;;2.70;99.90;;;;;;5011137;28;20588;-77
2024/02/10 01:15:24;;;;;;;32.30;15.63;;;2.70;99.90;;;;;;4996799;28;20286;-76
2024/02/10 01:18:12;;;;;;;32.70;15.53;;;2.60;99.90;;;;;;5010764;28;20195;-76
2024/02/10 01:21:00;;;;;;;35.40;15.77;;;2.70;99.90;;;;;;5010767;28;20287;-77
2024/02/10 01:23:49;;;;;;;38.17;15.97;;;2.60;99.90;;;;;;5010939;28;20201;-77
2024/02/10 01:26:36;;;;;;;31.73;15.57;;;2.70;99.90;;;;;;5010121;28;20234;-76
2024/02/10 01:29:24;;;;;;;35.23;16.43;;;2.70;99.90;;;;;;5012095;28;20203;-77
2024/02/10 01:32:11;;;;;;;32.53;15.13;;;2.70;99.90;;;;;;4997841;28;20192;-77
2024/02/10 01:34:59;;;;;;;34.87;16.30;;;2.80;99.90;;;;;;5012286;28;20206;-77
2024/02/10 01:37:47;;;;;;;34.33;15.80;;;2.80;99.90;;;;;;5000066;28;20199;-76
2024/02/10 01:40:34;;;;;;;35.83;15.97;;;2.80;99.90;;;;;;5015910;28;20331;-76
2024/02/10 01:43:22;;;;;;;33.13;15.97;;;2.80;99.90;;;;;;5000017;28;20216;-77
2024/02/10 01:46:15;;;;;;;35.00;16.63;;;2.80;99.90;;;;;;5014867;28;20223;-77
2024/02/10 01:49:03;;;;;;;36.40;17.03;;;2.80;99.90;;;;;;5014371;28;20298;-76
2024/02/10 01:51:50;;;;;;;38.43;16.87;;;2.80;99.90;;;;;;5015468;28;20250;-77
2024/02/10 01:54:39;;;;;;;37.57;17.07;;;2.80;99.90;;;;;;5015421;28;20288;-77
2024/02/10 01:57:27;;;;;;;35.60;16.70;;;2.80;99.90;;;;;;5000164;28;20227;-76
2024/02/10 02:00:16;;;;;;;36.03;16.87;;;2.80;99.90;;;;;;5014706;28;20197;-77
2024/02/10 02:03:04;;;;;;;38.97;17.67;;;2.80;99.90;;;;;;5014486;28;20196;-76
2024/02/10 02:05:51;;;;;;;40.83;18.77;;;2.80;99.90;;;;;;5014482;28;20276;-77
2024/02/10 02:08:39;;;;;;;37.50;18.13;;;2.70;99.90;;;;;;5000302;28;20725;-77
2024/02/10 02:11:29;;;;;;;43.27;18.03;;;2.70;99.90;;;;;;5015754;28;20224;-77
2024/02/10 02:14:17;;;;;;;39.50;18.47;;;2.70;99.90;;;;;;4998969;28;20620;-77
2024/02/10 02:17:05;;;;;;;41.67;18.43;;;2.70;99.90;;;;;;5015309;28;20277;-77
2024/02/10 02:19:52;;;;;;;38.27;17.77;;;2.80;99.90;;;;;;5013756;28;20197;-77
2024/02/10 02:22:53;;;;;;;40.87;18.93;;;2.80;99.90;;;;;;5013541;28;20327;-77
2024/02/10 02:25:41;;;;;;;37.53;18.30;;;2.90;99.90;;;;;;5014244;28;20660;-77
2024/02/10 02:28:29;;;;;;;36.90;18.10;;;2.90;99.90;;;;;;5012918;28;20224;-77
2024/02/10 02:31:17;;;;;;;37.17;17.27;;;3.00;99.90;;;;;;5013093;28;20192;-77
2024/02/10 02:34:04;;;;;;;42.57;18.67;;;3.00;99.90;;;;;;5013777;28;20657;-77
2024/02/10 02:36:52;;;;;;;40.27;18.00;;;3.10;99.90;;;;;;4999728;28;20193;-77
2024/02/10 02:39:40;;;;;;;40.53;17.87;;;3.00;99.90;;;;;;5012882;28;20279;-77
2024/02/10 02:42:27;;;;;;;40.10;18.87;;;3.00;99.90;;;;;;5013350;28;20313;-77
2024/02/10 02:45:14;;;;;;;42.20;18.93;;;3.00;99.90;;;;;;5014053;28;20195;-76
2024/02/10 02:48:03;;;;;;;40.57;18.40;;;3.00;99.90;;;;;;5013725;28;20226;-77
2024/02/10 02:50:51;;;;;;;42.27;18.50;;;3.00;99.90;;;;;;5000139;28;20199;-77
2024/02/10 02:53:38;;;;;;;43.00;18.73;;;3.00;99.90;;;;;;4999536;28;20201;-76
2024/02/10 02:56:25;;;;;;;41.57;17.83;;;3.00;99.90;;;;;;5000352;28;20202;-77
2024/02/10 02:59:16;;;;;;;42.87;18.93;;;3.00;99.90;;;;;;5012558;28;20208;-77
2024/02/10 03:02:05;;;;;;;43.90;18.60;;;2.90;99.90;;;;;;5012661;28;20651;-76
2024/02/10 03:04:52;;;;;;;41.37;19.07;;;2.90;99.90;;;;;;5014255;28;20200;-77
2024/02/10 03:07:44;;;;;;;41.73;18.63;;;2.90;99.90;;;;;;5013057;28;20429;-77
2024/02/10 03:10:31;;;;;;;45.10;18.97;;;2.90;99.90;;;;;;5012549;28;20314;-77
2024/02/10 03:13:18;;;;;;;39.83;18.40;;;3.00;99.90;;;;;;5013871;28;20762;-77
2024/02/10 03:16:06;;;;;;;43.83;18.90;;;3.00;99.90;;;;;;5012677;28;20610;-77
2024/02/10 03:18:53;;;;;;;43.27;18.73;;;3.00;99.90;;;;;;5013850;28;20203;-77
2024/02/10 03:21:41;;;;;;;41.43;18.90;;;3.00;99.90;;;;;;4998520;28;20204;-77
2024/02/10 03:24:30;;;;;;;43.03;19.77;;;3.10;99.90;;;;;;5014297;28;20208;-76
2024/02/10 03:27:17;;;;;;;45.60;19.40;;;3.10;99.90;;;;;;5012460;28;20224;-77
2024/02/10 03:30:05;;;;;;;40.10;18.13;;;3.00;99.90;;;;;;4999367;28;20242;-77
2024/02/10 03:32:55;;;;;;;43.17;19.90;;;3.00;99.90;;;;;;5012401;28;20201;-76
2024/02/10 03:35:44;;;;;;;45.07;20.20;;;2.90;99.90;;;;;;4998588;28;20579;-77
2024/02/10 03:38:31;;;;;;;47.67;20.23;;;3.00;99.90;;;;;;4998051;28;20616;-76
2024/02/10 03:41:19;;;;;;;44.97;19.63;;;3.00;99.90;;;;;;5013416;28;20192;-77
2024/02/10 03:44:06;;;;;;;47.07;19.40;;;3.00;99.90;;;;;;5013402;28;20204;-76
2024/02/10 03:46:54;;;;;;;44.77;19.60;;;3.10;99.90;;;;;;5011582;28;20202;-77
2024/02/10 03:49:42;;;;;;;44.13;19.33;;;3.10;99.90;;;;;;4998273;28;20251;-77
2024/02/10 03:52:30;;;;;;;46.53;19.77;;;3.20;99.90;;;;;;5012768;28;20227;-77
2024/02/10 03:55:18;;;;;;;43.73;19.67;;;3.20;99.90;;;;;;4998737;28;20672;-77
2024/02/10 03:58:06;;;;;;;42.57;19.60;;;3.20;99.90;;;;;;5011530;28;20652;-77
2024/02/10 04:00:53;;;;;;;44.63;19.97;;;3.10;99.90;;;;;;4997416;28;20200;-76
2024/02/10 04:03:45;;;;;;;44.90;20.30;;;3.00;99.90;;;;;;5013643;28;20208;-77
2024/02/10 04:06:33;;;;;;;45.80;19.73;;;3.00;99.90;;;;;;5012265;28;20585;-77
2024/02/10 04:09:21;;;;;;;44.83;19.97;;;3.10;99.90;;;;;;4997455;28;20270;-77
2024/02/10 04:12:09;;;;;;;47.23;20.07;;;3.20;99.90;;;;;;4997885;28;20230;-77
2024/02/10 04:14:58;;;;;;;43.37;19.27;;;3.10;99.90;;;;;;4998723;28;20204;-77
2024/02/10 04:17:50;;;;;;;43.83;19.63;;;3.20;99.90;;;;;;5013382;28;20279;-77
2024/02/10 04:20:37;;;;;;;41.73;19.10;;;3.20;99.90;;;;;;5011631;28;20199;-77
2024/02/10 04:23:32;;;;;;;47.30;20.20;;;3.20;99.90;;;;;;5011157;28;20568;-77
2024/02/10 04:26:19;;;;;;;47.50;20.40;;;3.10;99.90;;;;;;4997794;28;20221;-77
2024/02/10 04:29:06;;;;;;;45.60;19.97;;;3.10;99.90;;;;;;4997542;28;20215;-78
2024/02/10 04:31:58;;;;;;;43.33;19.13;;;3.20;99.90;;;;;;5011852;28;20192;-77
2024/02/10 04:34:46;;;;;;;44.80;20.10;;;3.10;99.90;;;;;;5013259;28;20199;-77
2024/02/10 04:37:35;;;;;;;42.87;19.70;;;3.10;99.90;;;;;;4998151;28;20200;-77
2024/02/10 04:40:23;;;;;;;43.53;19.60;;;3.20;99.90;;;;;;5011517;28;20206;-77
2024/02/10 04:43:12;;;;;;;42.00;19.47;;;3.20;99.90;;;;;;4998141;28;20212;-77
2024/02/10 04:46:00;;;;;;;45.73;20.10;;;3.10;99.90;;;;;;5011311;28;20286;-77
2024/02/10 04:48:47;;;;;;;43.67;19.73;;;3.10;99.90;;;;;;5011441;28;20222;-77
2024/02/10 04:51:35;;;;;;;45.80;19.93;;;3.20;99.90;;;;;;5010816;28;20283;-77
2024/02/10 04:54:27;;;;;;;44.20;19.77;;;3.10;99.90;;;;;;4997870;28;20204;-77
2024/02/10 04:57:15;;;;;;;43.77;19.30;;;3.10;99.90;;;;;;5011813;28;20256;-77
2024/02/10 05:00:12;;;;;;;46.83;20.30;;;3.20;99.90;;;;;;5012232;28;20203;-78
2024/02/10 05:03:02;;;;;;;48.70;20.80;;;3.20;99.90;;;;;;5010896;28;20526;-78
2024/02/10 05:05:50;;;;;;;44.77;20.10;;;3.10;99.90;;;;;;5011265;28;20227;-78
2024/02/10 05:08:38;;;;;;;49.80;21.10;;;3.20;99.90;;;;;;5012210;28;20215;-78
2024/02/10 05:11:25;;;;;;;45.93;21.00;;;3.20;99.90;;;;;;5014267;28;20203;-78
2024/02/10 05:14:13;;;;;;;46.20;20.87;;;3.20;99.90;;;;;;5014864;28;20541;-77
2024/02/10 05:17:00;;;;;;;52.20;22.93;;;3.20;99.90;;;;;;5016506;28;20201;-78
2024/02/10 05:19:48;;;;;;;46.83;20.47;;;3.20;99.90;;;;;;5016693;28;20262;-77
2024/02/10 05:22:37;;;;;;;48.33;20.83;;;3.20;99.90;;;;;;5014764;28;20192;-78
2024/02/10 05:25:34;;;;;;;47.97;21.13;;;3.20;99.90;;;;;;5014973;28;20197;-78
2024/02/10 05:28:25;;;;;;;46.23;20.70;;;3.30;99.90;;;;;;5014823;28;20688;-78
2024/02/10 05:31:13;;;;;;;50.43;21.43;;;3.20;99.90;;;;;;5001362;28;20207;-78
2024/02/10 05:34:00;;;;;;;47.03;20.87;;;3.20;99.90;;;;;;5000546;28;20203;-79
2024/02/10 05:36:48;;;;;;;47.07;20.80;;;3.20;99.90;;;;;;5014279;28;20193;-78
2024/02/10 05:39:36;;;;;;;49.03;21.10;;;3.30;99.90;;;;;;4999393;28;20582;-78
2024/02/10 05:42:23;;;;;;;48.00;21.17;;;3.30;99.90;;;;;;5015151;28;20216;-78
2024/02/10 05:45:11;;;;;;;47.90;21.80;;;3.30;99.90;;;;;;5013717;28;20199;-78
2024/02/10 05:47:59;;;;;;;47.70;20.40;;;3.20;99.90;;;;;;5014899;28;20230;-79
2024/02/10 05:50:50;;;;;;;47.40;21.30;;;3.20;99.90;;;;;;5015789;28;20200;-78
2024/02/10 05:53:37;;;;;;;49.77;21.20;;;3.20;99.90;;;;;;5014757;28;20577;-77
2024/02/10 05:56:28;;;;;;;51.47;22.00;;;3.30;99.90;;;;;;5013736;28;20200;-78
2024/02/10 05:59:16;;;;;;;49.47;20.77;;;3.30;99.90;;;;;;5000376;28;20246;-78
2024/02/10 06:02:04;;;;;;;47.97;21.87;;;3.30;99.90;;;;;;5013860;28;20200;-78
2024/02/10 06:04:52;;;;;;;48.93;21.13;;;3.30;99.90;;;;;;5014709;28;20683;-78
2024/02/10 06:07:41;;;;;;;52.10;21.47;;;3.30;99.90;;;;;;5015281;28;20274;-78
2024/02/10 06:10:29;;;;;;;48.97;21.20;;;3.30;99.90;;;;;;5015136;28;20203;-78
2024/02/10 06:13:17;;;;;;;48.77;21.03;;;3.40;99.90;;;;;;5000556;28;20224;-78
2024/02/10 06:16:05;;;;;;;47.83;20.17;;;3.40;99.90;;;;;;5013837;28;20203;-77
2024/02/10 06:18:53;;;;;;;49.47;21.67;;;3.40;99.90;;;;;;5000037;28;20192;-78
2024/02/10 06:21:41;;;;;;;50.10;21.43;;;3.40;99.90;;;;;;4999716;28;20274;-78
2024/02/10 06:24:33;;;;;;;48.87;20.30;;;3.30;99.90;;;;;;4999526;28;20196;-77
2024/02/10 06:27:21;;;;;;;51.97;22.03;;;3.30;99.90;;;;;;5013076;28;20667;-77
2024/02/10 06:30:16;;;;;;;50.13;20.60;;;3.40;99.90;;;;;;5014643;28;20220;-77
2024/02/10 06:33:05;;;;;;;48.50;20.57;;;3.40;99.90;;;;;;5000423;28;20549;-78
2024/02/10 06:35:53;;;;;;;48.63;20.93;;;3.40;99.90;;;;;;4999736;28;20208;-77
2024/02/10 06:38:42;;;;;;;51.87;20.97;;;3.40;99.90;;;;;;5000123;28;20204;-77
2024/02/10 06:41:30;;;;;;;51.63;22.03;;;3.40;99.90;;;;;;5013149;28;20258;-78
2024/02/10 06:44:17;;;;;;;50.63;22.17;;;3.40;99.90;;;;;;5013877;28;20358;-78
2024/02/10 06:47:06;;;;;;;48.90;21.47;;;3.40;99.90;;;;;;5014581;28;20189;-78
2024/02/10 06:49:54;;;;;;;52.73;22.37;;;3.40;99.90;;;;;;4999344;28;20684;-78
2024/02/10 06:52:42;;;;;;;52.73;21.93;;;3.40;99.90;;;;;;5014635;28;20198;-78
2024/02/10 06:55:30;;;;;;;53.03;23.57;;;3.40;99.90;;;;;;4998756;28;20193;-78
2024/02/10 06:58:24;;;;;;;54.17;22.20;;;3.50;99.90;;;;;;5012460;28;20584;-78
2024/02/10 07:01:13;;;;;;;54.47;21.97;;;3.50;99.90;;;;;;5013217;28;20197;-77
2024/02/10 07:04:02;;;;;;;52.90;21.53;;;3.50;99.90;;;;;;4999623;28;20286;-78
2024/02/10 07:06:53;;;;;;;53.10;21.93;;;3.50;99.90;;;;;;4992556;28;20231;-77
2024/02/10 07:09:41;;;;;;;50.20;21.73;;;3.50;99.90;;;;;;4992757;28;20209;-78
2024/02/10 07:12:28;;;;;;;56.20;22.47;;;3.50;99.90;;;;;;4994188;28;20217;-79
2024/02/10 07:15:19;;;;;;;52.23;21.33;;;3.60;99.90;;;;;;4994149;28;20199;-78
2024/02/10 07:18:09;;;;;;;56.17;21.83;;;3.60;99.90;;;;;;4994844;28;20281;-77
2024/02/10 07:20:58;;;;;;;54.27;22.10;;;3.60;99.90;;;;;;4994580;28;20573;-76
2024/02/10 07:23:46;;;;;;;52.57;21.87;;;3.60;99.90;;;;;;4994249;28;20200;-77
2024/02/10 07:26:33;;;;;;;56.67;22.57;;;3.60;99.90;;;;;;4993507;28;20693;-77
2024/02/10 07:29:21;;;;;;;55.93;22.37;;;3.60;99.90;;;;;;4994652;28;20220;-76
2024/02/10 07:32:10;;;;;;;54.30;22.43;;;3.50;99.90;;;;;;4993518;28;20201;-77
2024/02/10 07:34:58;;;;;;;59.57;23.27;;;3.50;99.90;;;;;;4994048;28;20193;-76
2024/02/10 07:37:46;;;;;;;58.57;22.90;;;3.50;99.90;;;;;;4993030;28;20202;-76
2024/02/10 07:40:36;;;;;;;65.90;24.40;;;3.70;99.90;;;;;;4993948;28;20193;-77
2024/02/10 07:43:23;;;;;;;57.73;22.53;;;3.70;99.90;;;;;;4993306;28;20216;-76
2024/02/10 07:46:16;;;;;;;60.47;24.20;;;3.60;99.90;;;;;;4994447;28;20609;-76
2024/02/10 07:49:07;;;;;;;67.37;24.73;;;3.80;99.90;;;;;;4995473;28;20228;-76
2024/02/10 07:51:55;;;;;;;60.10;23.13;;;3.80;99.90;;;;;;4993308;28;20338;-76
2024/02/10 07:54:42;;;;;;;58.67;23.70;;;3.70;99.90;;;;;;4993815;28;20635;-77
2024/02/10 07:57:34;;;;;;;64.20;24.50;;;3.70;99.90;;;;;;4992140;28;20223;-76
2024/02/10 08:00:22;;;;;;;60.30;24.27;;;3.80;99.90;;;;;;4992545;28;20198;-77
2024/02/10 08:03:11;;;;;;;68.27;24.93;;;3.90;99.90;;;;;;4992341;28;20587;-76
2024/02/10 08:05:59;;;;;;;60.07;22.80;;;3.90;99.90;;;;;;4995427;28;20245;-77
2024/02/10 08:08:48;;;;;;;66.53;24.87;;;3.90;99.90;;;;;;5011002;28;20217;-76
2024/02/10 08:11:39;;;;;;;63.43;24.50;;;4.00;99.90;;;;;;5012304;28;20281;-76
2024/02/10 08:14:27;;;;;;;65.10;24.73;;;4.00;99.90;;;;;;4998456;28;20192;-76
2024/02/10 08:17:14;;;;;;;65.40;24.60;;;4.00;99.90;;;;;;5012001;28;20199;-76
2024/02/10 08:20:02;;;;;;;67.47;24.97;;;4.00;99.90;;;;;;5010982;28;20205;-76
2024/02/10 08:22:50;;;;;;;68.30;24.60;;;4.00;99.90;;;;;;4998132;28;20275;-77
2024/02/10 08:25:38;;;;;;;67.73;25.03;;;4.00;99.90;;;;;;5011253;28;20196;-77
2024/02/10 08:28:26;;;;;;;64.63;25.20;;;4.10;99.90;;;;;;4996788;28;20227;-76
2024/02/10 08:31:15;;;;;;;61.23;24.70;;;4.00;99.90;;;;;;5012900;28;20274;-77
2024/02/10 08:34:03;;;;;;;66.43;25.10;;;4.00;99.90;;;;;;5011102;28;20652;-77
2024/02/10 08:36:53;;;;;;;69.43;25.93;;;4.10;99.90;;;;;;5011761;28;20218;-77
2024/02/10 08:39:45;;;;;;;67.67;25.27;;;4.10;99.90;;;;;;4997568;28;20205;-76
2024/02/10 08:42:35;;;;;;;74.47;27.50;;;4.10;99.90;;;;;;5011105;28;20263;-77
2024/02/10 08:45:22;;;;;;;71.03;25.83;;;4.30;99.90;;;;;;5010159;28;20203;-77
2024/02/10 08:48:10;;;;;;;66.60;25.27;;;4.30;99.90;;;;;;5012106;28;20200;-76
2024/02/10 08:50:58;;;;;;;76.37;27.70;;;4.30;99.90;;;;;;5010539;28;20235;-77
2024/02/10 08:53:47;;;;;;;71.10;26.53;;;4.30;99.90;;;;;;5011404;28;20671;-77
2024/02/10 08:56:40;;;;;;;72.17;26.63;;;4.30;99.90;;;;;;5011781;28;20221;-77
2024/02/10 08:59:31;;;;;;;70.37;26.27;;;4.50;99.90;;;;;;4997267;28;20208;-77
2024/02/10 09:02:20;;;;;;;68.37;25.07;;;4.50;99.90;;;;;;5011113;28;20633;-77
2024/02/10 09:05:09;;;;;;;65.17;25.70;;;4.60;99.90;;;;;;4997931;28;20192;-78
2024/02/10 09:07:57;;;;;;;73.50;27.67;;;4.70;99.90;;;;;;4996724;28;20371;-78
2024/02/10 09:10:48;;;;;;;74.10;25.37;;;4.70;99.90;;;;;;5011589;28;20215;-78
2024/02/10 09:13:35;;;;;;;73.37;25.87;;;4.80;99.90;;;;;;4997508;28;20212;-78
2024/02/10 09:16:26;;;;;;;69.13;26.47;;;4.90;99.90;;;;;;4997719;28;20210;-79
2024/02/10 09:19:18;;;;;;;71.53;26.80;;;5.00;99.90;;;;;;4995865;28;20201;-78
2024/02/10 09:22:06;;;;;;;65.40;25.37;;;5.20;99.90;;;;;;5012309;28;20593;-78
2024/02/10 09:24:54;;;;;;;66.40;25.80;;;5.20;99.90;;;;;;4997719;28;20201;-79
2024/02/10 09:27:42;;;;;;;75.70;27.77;;;5.30;99.90;;;;;;4997698;28;20214;-78
2024/02/10 09:30:29;;;;;;;69.37;26.37;;;5.40;99.90;;;;;;5011095;28;20228;-79
2024/02/10 09:33:21;;;;;;;65.83;26.77;;;5.50;99.90;;;;;;5010967;28;20194;-79
2024/02/10 09:36:11;;;;;;;76.23;28.40;;;5.50;99.90;;;;;;5011661;28;20205;-78
2024/02/10 09:38:59;;;;;;;70.57;27.07;;;5.40;99.90;;;;;;4997112;28;20290;-78
2024/02/10 09:41:47;;;;;;;68.30;27.17;;;5.60;99.90;;;;;;5011361;28;20254;-79
2024/02/10 09:44:34;;;;;;;70.57;28.07;;;5.80;99.90;;;;;;5012031;28;20661;-78
2024/02/10 09:47:23;;;;;;;65.97;26.43;;;5.80;99.90;;;;;;5011985;28;20199;-78
2024/02/10 09:50:14;;;;;;;71.43;28.13;;;5.90;99.90;;;;;;4997362;28;20222;-78
2024/02/10 09:53:20;;;;;;;72.03;27.70;;;5.90;99.90;;;;;;4999565;28;20202;-78
2024/02/10 09:56:10;;;;;;;67.67;27.37;;;6.10;99.90;;;;;;4997876;28;20196;-78
2024/02/10 09:58:58;;;;;;;74.90;28.50;;;6.00;99.90;;;;;;5014448;28;20604;-78
2024/02/10 10:01:46;;;;;;;76.10;29.67;;;6.00;99.90;;;;;;5013507;28;20646;-78
2024/02/10 10:04:33;;;;;;;73.77;28.23;;;6.10;99.90;;;;;;5015221;28;20218;-78
2024/02/10 10:07:22;;;;;;;78.47;29.33;;;6.10;99.90;;;;;;4994596;28;20640;-77
2024/02/10 10:10:09;;;;;;;82.00;30.80;;;6.20;99.90;;;;;;4994856;28;20217;-78
2024/02/10 10:12:57;;;;;;;76.20;30.03;;;6.30;99.90;;;;;;4995299;28;20213;-78
2024/02/10 10:15:44;;;;;;;77.43;31.53;;;6.30;99.90;;;;;;4994358;28;20332;-78
2024/02/10 10:18:35;;;;;;;80.53;30.63;;;6.30;99.90;;;;;;4995300;28;20214;-79
2024/02/10 10:21:24;;;;;;;84.20;30.83;;;6.20;99.90;;;;;;4994326;28;20204;-79
2024/02/10 10:24:15;;;;;;;78.43;31.40;;;6.30;99.90;;;;;;4994706;28;20255;-78
2024/02/10 10:27:03;;;;;;;77.07;29.93;;;6.30;99.90;;;;;;4995889;28;20239;-78
2024/02/10 10:29:53;;;;;;;81.60;30.80;;;6.40;99.90;;;;;;4993210;28;20227;-78
2024/02/10 10:32:50;;;;;;;80.13;31.33;;;6.40;99.90;;;;;;4995755;28;20202;-78
2024/02/10 10:35:44;;;;;;;78.53;30.90;;;6.50;99.90;;;;;;4994051;28;20596;-78
2024/02/10 10:38:33;;;;;;;79.57;30.20;;;6.30;99.90;;;;;;4995537;28;20207;-78
2024/02/10 10:41:22;;;;;;;83.43;31.43;;;6.20;99.90;;;;;;4993148;28;20305;-78
2024/02/10 10:44:12;;;;;;;83.47;31.27;;;6.20;99.90;;;;;;4995297;28;20354;-79
2024/02/10 10:47:01;;;;;;;85.63;32.03;;;6.30;99.90;;;;;;4994195;28;20203;-78
2024/02/10 10:49:50;;;;;;;86.47;31.67;;;6.20;99.90;;;;;;4993545;28;20303;-78
2024/02/10 10:52:43;;;;;;;86.53;33.53;;;6.30;99.90;;;;;;4993749;28;20767;-78
2024/02/10 10:55:51;;;;;;;88.03;33.73;;;6.30;99.90;;;;;;4994774;28;20295;-78
2024/02/10 10:58:57;;;;;;;90.47;33.50;;;6.30;99.90;;;;;;4995421;28;20189;-77
2024/02/10 11:01:48;;;;;;;84.37;31.43;;;6.30;99.90;;;;;;4993696;28;20205;-78
2024/02/10 11:04:38;;;;;;;81.77;31.20;;;6.30;99.90;;;;;;4995040;28;20674;-78
2024/02/10 11:07:38;;;;;;;82.43;31.20;;;6.30;99.90;;;;;;5008380;28;20226;-77
2024/02/10 11:10:39;;;;;;;82.73;31.77;;;6.30;99.90;;;;;;4998928;28;20221;-78
2024/02/10 11:13:30;;;;;;;84.97;30.93;;;6.40;99.90;;;;;;5012420;28;20766;-78
2024/02/10 11:16:29;;;;;;;80.27;30.13;;;6.40;99.90;;;;;;5013544;28;20196;-77
2024/02/10 11:19:17;;;;;;;78.80;30.80;;;6.30;99.90;;;;;;4998808;28;20199;-78
2024/02/10 11:22:09;;;;;;;83.37;30.63;;;6.50;99.90;;;;;;5012168;28;20232;-79
2024/02/10 11:25:00;;;;;;;70.37;27.77;;;6.50;99.90;;;;;;4998187;28;20199;-79
2024/02/10 11:27:47;;;;;;;74.63;29.57;;;6.50;99.90;;;;;;4999367;28;20234;-78
2024/02/10 11:30:35;;;;;;;73.13;29.53;;;6.50;99.90;;;;;;5012026;28;20216;-79
2024/02/10 11:33:23;;;;;;;77.60;29.03;;;6.60;99.90;;;;;;5012667;28;20335;-78
2024/02/10 11:36:12;;;;;;;77.97;29.27;;;6.60;99.90;;;;;;4999096;28;20197;-78
2024/02/10 11:39:00;;;;;;;75.70;30.03;;;6.60;99.90;;;;;;4997994;28;20206;-79
2024/02/10 11:41:47;;;;;;;76.50;29.53;;;6.50;99.90;;;;;;4997938;28;20222;-78
2024/02/10 11:44:36;;;;;;;81.97;30.87;;;6.50;99.90;;;;;;5011869;28;20192;-79
2024/02/10 11:47:23;;;;;;;76.87;30.67;;;6.50;99.90;;;;;;5012340;28;20829;-79
2024/02/10 11:50:11;;;;;;;77.10;29.93;;;6.60;99.90;;;;;;5012518;28;20594;-78
2024/02/10 11:52:59;;;;;;;76.70;29.27;;;6.70;99.90;;;;;;5011415;28;20220;-78
2024/02/10 11:55:47;;;;;;;69.83;29.47;;;6.80;99.90;;;;;;4998697;28;20203;-79
2024/02/10 11:58:36;;;;;;;75.67;30.80;;;6.80;99.90;;;;;;4998130;28;20208;-79
2024/02/10 12:01:24;;;;;;;75.60;30.33;;;6.80;99.90;;;;;;4998172;28;20668;-79
2024/02/10 12:04:18;;;;;;;72.10;30.10;;;6.90;99.90;;;;;;4998119;28;20205;-78
2024/02/10 12:07:07;;;;;;;83.10;31.87;;;6.90;99.90;;;;;;4999112;28;20558;-78
2024/02/10 12:09:58;;;;;;;79.23;30.50;;;6.90;99.90;;;;;;4998398;28;20292;-79
2024/02/10 12:12:55;;;;;;;75.27;30.20;;;6.90;99.90;;;;;;4997216;28;20221;-79
2024/02/10 12:15:43;;;;;;;75.57;29.00;;;7.00;99.90;;;;;;5011933;28;20210;-79
2024/02/10 12:18:32;;;;;;;76.37;30.03;;;7.00;99.90;;;;;;5011130;28;20194;-79
2024/02/10 12:21:24;;;;;;;74.57;29.20;;;7.00;99.90;;;;;;4997181;28;20287;-79
2024/02/10 12:24:19;;;;;;;75.27;29.40;;;7.00;99.90;;;;;;4997008;28;20703;-78
2024/02/10 12:27:07;;;;;;;76.63;28.93;;;7.10;99.90;;;;;;4997772;28;20224;-79
2024/02/10 12:29:56;;;;;;;81.00;29.70;;;7.10;99.90;;;;;;5012116;28;20233;-78
2024/02/10 12:32:44;;;;;;;80.67;29.67;;;7.10;99.90;;;;;;5012055;28;20234;-79
2024/02/10 12:35:33;;;;;;;73.13;27.83;;;7.10;99.90;;;;;;5012005;28;20207;-79
2024/02/10 12:38:25;;;;;;;70.47;27.80;;;7.20;99.90;;;;;;5011980;28;20206;-79
2024/02/10 12:41:16;;;;;;;72.73;27.87;;;7.40;99.90;;;;;;4997491;28;20437;-79
2024/02/10 12:44:04;;;;;;;69.13;27.90;;;7.40;99.90;;;;;;5012468;28;20678;-79
2024/02/10 12:46:52;;;;;;;70.37;28.10;;;7.50;99.90;;;;;;5013163;28;20670;-79
2024/02/10 12:49:39;;;;;;;69.97;28.13;;;7.50;99.90;;;;;;5010751;28;20885;-79
2024/02/10 12:52:26;;;;;;;70.50;27.50;;;7.50;99.90;;;;;;4997853;28;20202;-79
2024/02/10 12:55:17;;;;;;;70.80;27.60;;;7.50;99.90;;;;;;5011698;28;20632;-79
2024/02/10 12:58:05;;;;;;;69.37;27.50;;;7.60;99.90;;;;;;4996864;28;20212;-79
2024/02/10 13:00:55;;;;;;;76.70;29.10;;;7.60;99.90;;;;;;5011810;28;20578;-79
2024/02/10 13:03:42;;;;;;;67.90;27.70;;;7.60;99.90;;;;;;5012355;28;20198;-79
2024/02/10 13:06:33;;;;;;;69.80;27.20;;;7.60;99.90;;;;;;5012396;28;20703;-78
2024/02/10 13:09:22;;;;;;;74.27;28.43;;;7.50;99.90;;;;;;5010914;28;20219;-79
2024/02/10 13:12:09;;;;;;;68.97;25.80;;;7.60;99.90;;;;;;5011510;28;20226;-78
2024/02/10 13:14:57;;;;;;;69.83;26.37;;;7.50;99.90;;;;;;5010946;28;20561;-79
2024/02/10 13:17:47;;;;;;;69.67;26.13;;;7.50;99.90;;;;;;5012789;28;20574;-78
2024/02/10 13:20:34;;;;;;;71.77;27.50;;;7.40;99.90;;;;;;5011071;28;20215;-79
2024/02/10 13:23:21;;;;;;;65.37;25.70;;;7.30;99.90;;;;;;5011442;28;20200;-78
2024/02/10 13:26:12;;;;;;;68.57;27.90;;;7.20;99.90;;;;;;5011417;28;20203;-78
2024/02/10 13:28:59;;;;;;;74.87;27.60;;;7.10;99.90;;;;;;5012123;28;20203;-78
2024/02/10 13:31:47;;;;;;;66.07;26.07;;;7.20;99.90;;;;;;4999616;28;20227;-79
2024/02/10 13:34:45;;;;;;;71.20;27.77;;;7.20;99.90;;;;;;5014201;28;20195;-79
2024/02/10 14:05:13;;;;;;;78.33;29.97;;;7.40;99.90;;;;;;5015305;28;20232;-79
2024/02/10 14:11:01;;;;;;;74.93;29.87;;;7.50;99.90;;;;;;5016326;28;20219;-78
2024/02/10 14:13:53;;;;;;;76.57;30.90;;;7.50;99.90;;;;;;5000117;28;20192;-79
2024/02/10 14:16:43;;;;;;;73.93;30.93;;;7.50;99.90;;;;;;5013820;28;20216;-79
2024/02/10 14:19:31;;;;;;;73.63;29.23;;;7.60;99.90;;;;;;5014989;28;20574;-80
2024/02/10 14:22:18;;;;;;;72.40;28.47;;;7.70;99.90;;;;;;5014307;28;20576;-79
2024/02/10 14:25:10;;;;;;;71.13;27.70;;;7.90;99.90;;;;;;5000706;28;20195;-79
2024/02/10 14:28:04;;;;;;;74.30;29.07;;;8.00;99.90;;;;;;5014178;28;20230;-80
2024/02/10 14:30:51;;;;;;;69.83;28.27;;;8.20;99.90;;;;;;5015533;28;20249;-79
2024/02/10 14:33:40;;;;;;;67.23;27.33;;;8.30;99.90;;;;;;5000314;28;20286;-82
2024/02/10 14:39:21;;;;;;;73.23;28.93;;;8.10;99.90;;;;;;5014657;28;20278;-80
2024/02/10 14:42:08;;;;;;;72.83;28.17;;;8.00;99.90;;;;;;4997862;28;20702;-80
2024/02/10 14:44:56;;;;;;;65.97;27.17;;;8.00;99.90;;;;;;5012803;28;20198;-79
2024/02/10 14:47:43;;;;;;;71.40;28.10;;;8.00;99.90;;;;;;4999607;28;20233;-80
2024/02/10 14:50:31;;;;;;;66.43;27.77;;;7.90;99.90;;;;;;5013414;28;20280;-79
2024/02/10 14:53:24;;;;;;;73.23;28.40;;;7.90;99.90;;;;;;5012434;28;20195;-79
2024/02/10 14:56:13;;;;;;;68.83;27.13;;;7.90;99.90;;;;;;4998527;28;20198;-79
2024/02/10 14:59:02;;;;;;;67.33;27.23;;;7.90;99.90;;;;;;4999161;28;20274;-80
2024/02/10 15:01:53;;;;;;;66.77;28.37;;;7.90;99.90;;;;;;5012941;28;20196;-79